Time;durP1;ratioP1;P1;durP2;ratioP2;P2;SDS_P1;SDS_P2;PMS_P1;PMS_P2;Temp;Humidity;BMP_temperature;BMP_pressure;BME280_temperature;BME280_humidity;BME280_pressure;Samples;Min_cycle;Max_cycle;Signal;HPM_P1;HPM_P2
2021/12/08 00:00:19;;;;;;;3.00;1.57;;;;;;;7.62;51.93;99004.16;687841;28;1127;-84
2021/12/08 00:00:54;;;;;;;3.42;1.90;;;;;;;7.68;51.93;99006.84;687953;28;1365;-83
2021/12/08 00:01:21;;;;;;;2.40;1.70;;;;;;;7.68;51.61;99001.66;684661;28;1151;-84
2021/12/08 00:01:42;;;;;;;2.30;1.83;;;;;;;7.68;51.83;99000.78;687623;28;1258;-84
2021/12/08 00:02:03;;;;;;;2.55;1.90;;;;;;;7.64;51.86;98999.00;688264;28;1571;-83
2021/12/08 00:02:25;;;;;;;3.10;1.90;;;;;;;7.76;51.41;99006.06;687885;28;1356;-83
2021/12/08 00:02:46;;;;;;;2.97;1.58;;;;;;;7.67;51.57;98997.31;689525;28;1115;-85
2021/12/08 00:03:11;;;;;;;3.00;1.60;;;;;;;7.74;51.63;98994.78;682580;28;1133;-83
2021/12/08 00:03:32;;;;;;;3.50;1.70;;;;;;;7.72;51.40;98975.72;685775;28;1233;-84
2021/12/08 00:03:53;;;;;;;3.10;1.50;;;;;;;7.78;51.28;98984.44;685534;28;999;-85
2021/12/08 00:04:14;;;;;;;3.60;1.50;;;;;;;7.74;51.23;98980.06;688024;28;1076;-84
2021/12/08 00:04:35;;;;;;;3.67;1.60;;;;;;;7.83;51.51;98989.69;691684;28;1215;-83
2021/12/08 00:05:00;;;;;;;3.90;1.60;;;;;;;7.73;51.02;98978.34;687923;28;1264;-84
2021/12/08 00:05:22;;;;;;;2.55;1.70;;;;;;;7.87;51.00;98994.03;687936;28;1137;-83
2021/12/08 00:05:45;;;;;;;2.38;1.60;;;;;;;7.85;51.06;98987.13;689779;28;1262;-84
2021/12/08 00:06:06;;;;;;;2.15;1.48;;;;;;;7.74;51.14;98994.78;682606;29;1400;-83
2021/12/08 00:06:26;;;;;;;2.05;1.50;;;;;;;7.75;51.38;98970.56;683455;28;1164;-83
2021/12/08 00:06:47;;;;;;;2.30;1.60;;;;;;;7.86;50.94;98984.53;690258;28;1983;-84
2021/12/08 00:07:09;;;;;;;1.73;1.50;;;;;;;7.82;51.04;98972.38;688052;28;1039;-83
2021/12/08 00:07:29;;;;;;;1.67;1.58;;;;;;;7.85;51.43;98981.94;685117;28;1395;-84
2021/12/08 00:07:51;;;;;;;1.80;1.70;;;;;;;7.94;51.11;98992.41;690374;28;1131;-84
2021/12/08 00:08:15;;;;;;;1.98;1.77;;;;;;;7.92;51.05;98983.72;687923;28;1167;-83
2021/12/08 00:08:36;;;;;;;2.08;1.85;;;;;;;7.86;51.58;98974.13;686175;28;1164;-84
2021/12/08 00:09:05;;;;;;;2.80;1.80;;;;;;;7.86;51.34;99010.47;685268;28;1292;-84
2021/12/08 00:09:45;;;;;;;3.30;1.48;;;;;;;7.78;51.46;98973.19;688496;28;1153;-83
2021/12/08 00:13:08;;;;;;;1.50;1.40;;;;;;;7.83;50.86;98968.91;687660;28;1263;-84
2021/12/08 00:13:33;;;;;;;1.50;1.40;;;;;;;7.84;51.09;98967.19;686015;28;1168;-82
2021/12/08 00:13:53;;;;;;;1.45;1.35;;;;;;;7.96;51.25;98975.09;682588;29;1100;-84
2021/12/08 00:14:22;;;;;;;1.38;1.20;;;;;;;7.82;51.10;98970.63;685313;28;1074;-84
2021/12/08 00:14:43;;;;;;;2.03;1.20;;;;;;;7.88;51.40;98975.03;688039;28;1512;-84
2021/12/08 00:15:04;;;;;;;3.10;1.40;;;;;;;7.81;51.57;98970.63;690569;28;1151;-85
2021/12/08 00:15:25;;;;;;;3.90;1.50;;;;;;;7.93;51.13;98981.13;690706;28;1379;-83
2021/12/08 00:15:50;;;;;;;2.30;1.42;;;;;;;7.90;51.21;98969.84;686502;28;1124;-84
2021/12/08 00:16:13;;;;;;;2.20;1.40;;;;;;;7.94;50.75;98982.88;684248;28;1180;-84
2021/12/08 00:16:33;;;;;;;1.42;1.33;;;;;;;7.93;51.16;98986.31;689758;28;1206;-83
2021/12/08 00:17:03;;;;;;;1.67;1.40;;;;;;;7.82;51.33;98964.59;686487;28;1671;-83
2021/12/08 00:17:25;;;;;;;2.00;1.60;;;;;;;7.88;51.61;98969.84;682271;28;1646;-84
2021/12/08 00:17:45;;;;;;;2.25;1.60;;;;;;;7.82;51.65;98969.78;682324;29;1861;-83
2021/12/08 00:18:12;;;;;;;2.72;1.58;;;;;;;7.84;51.64;98981.03;682725;29;1041;-83
2021/12/08 00:18:34;;;;;;;4.05;1.48;;;;;;;7.87;51.62;98978.47;684492;28;1088;-84
2021/12/08 00:18:58;;;;;;;3.95;1.50;;;;;;;7.82;51.33;98972.38;685615;28;1901;-82
2021/12/08 00:19:18;;;;;;;4.10;1.80;;;;;;;7.77;51.78;98974.03;689834;28;1254;-83
2021/12/08 00:19:39;;;;;;;3.20;1.60;;;;;;;7.83;51.66;98979.31;687948;28;1120;-84
2021/12/08 00:20:02;;;;;;;2.85;1.63;;;;;;;7.85;51.64;98972.38;691082;28;1854;-83
2021/12/08 00:20:24;;;;;;;2.13;1.45;;;;;;;7.83;52.14;98968.91;693542;28;862;-84
2021/12/08 00:20:46;;;;;;;2.33;1.50;;;;;;;7.75;51.74;98960.19;682378;29;1392;-83
2021/12/08 00:21:09;;;;;;;3.55;1.50;;;;;;;7.86;51.71;98970.69;690207;28;1097;-83
2021/12/08 00:21:29;;;;;;;3.45;1.52;;;;;;;7.93;51.63;98981.13;687853;28;1045;-83
2021/12/08 00:21:50;;;;;;;3.05;1.70;;;;;;;7.84;51.64;98956.81;693302;28;1204;-84
2021/12/08 00:22:11;;;;;;;1.93;1.80;;;;;;;7.93;51.71;98975.94;693452;28;925;-84
2021/12/08 00:22:31;;;;;;;2.00;1.80;;;;;;;7.84;51.41;98956.81;684970;28;1932;-84
2021/12/08 00:22:52;;;;;;;2.10;1.60;;;;;;;7.82;51.41;98962.00;682596;29;989;-84
2021/12/08 00:23:14;;;;;;;2.20;1.60;;;;;;;7.86;51.56;98984.53;690612;28;1289;-84
2021/12/08 00:23:35;;;;;;;2.10;1.50;;;;;;;7.77;51.86;98945.47;690188;28;1406;-84
2021/12/08 00:23:55;;;;;;;1.60;1.50;;;;;;;7.77;51.81;98946.38;690786;28;1072;-84
2021/12/08 00:24:16;;;;;;;1.60;1.50;;;;;;;7.85;51.62;98962.00;689759;28;1082;-84
2021/12/08 00:24:37;;;;;;;2.40;1.50;;;;;;;7.76;51.63;98946.34;689023;28;1127;-85
2021/12/08 00:24:57;;;;;;;2.90;1.50;;;;;;;7.72;52.07;98954.94;687916;28;1075;-84
2021/12/08 00:25:18;;;;;;;2.90;1.50;;;;;;;7.68;52.02;98944.53;684303;28;1861;-85
2021/12/08 00:25:39;;;;;;;1.90;1.50;;;;;;;7.73;52.57;98954.97;683307;28;1088;-84
2021/12/08 00:26:00;;;;;;;1.55;1.45;;;;;;;7.60;52.28;98956.56;690847;28;1013;-84
2021/12/08 00:26:20;;;;;;;1.73;1.60;;;;;;;7.52;52.55;98947.81;687934;28;1236;-84
2021/12/08 00:26:41;;;;;;;2.00;1.80;;;;;;;7.59;52.81;98967.81;685036;28;1914;-85
2021/12/08 00:27:02;;;;;;;2.70;1.80;;;;;;;7.47;52.88;98955.56;682454;29;1282;-83
2021/12/08 00:27:22;;;;;;;3.33;1.80;;;;;;;7.45;53.27;98940.81;685315;28;874;-84
2021/12/08 00:27:43;;;;;;;3.22;1.70;;;;;;;7.46;53.05;98945.16;684070;28;1168;-84
2021/12/08 00:28:06;;;;;;;2.70;1.70;;;;;;;7.37;53.03;98928.63;685090;28;1268;-83
2021/12/08 00:28:27;;;;;;;1.60;1.50;;;;;;;7.32;52.92;98948.47;685327;28;883;-84
2021/12/08 00:28:47;;;;;;;1.60;1.50;;;;;;;7.34;53.19;98944.16;686226;28;1291;-84
2021/12/08 00:29:08;;;;;;;1.60;1.40;;;;;;;7.36;53.10;98941.56;686222;28;1158;-84
2021/12/08 00:29:29;;;;;;;1.98;1.50;;;;;;;7.40;53.23;98949.44;687347;28;1029;-84
2021/12/08 00:29:49;;;;;;;1.90;1.40;;;;;;;7.38;53.61;98947.69;690600;28;1129;-83
2021/12/08 00:30:10;;;;;;;1.70;1.60;;;;;;;7.29;53.19;98934.59;687701;28;1273;-84
2021/12/08 00:30:30;;;;;;;1.70;1.60;;;;;;;7.34;53.14;98936.38;687796;28;1053;-83
2021/12/08 00:30:56;;;;;;;2.03;1.83;;;;;;;7.40;53.04;98933.88;684850;28;1442;-84
2021/12/08 00:31:17;;;;;;;2.10;1.70;;;;;;;7.48;53.41;98946.91;682769;28;1505;-84
2021/12/08 00:31:40;;;;;;;2.82;1.54;;;;;;;7.41;53.26;98939.91;688284;28;1438;-84
2021/12/08 00:32:00;;;;;;;3.20;1.45;;;;;;;7.37;53.13;98933.81;690572;28;1307;-83
2021/12/08 00:32:26;;;;;;;2.60;1.50;;;;;;;7.43;53.66;98943.38;690662;28;1036;-84
2021/12/08 00:32:47;;;;;;;2.50;1.70;;;;;;;7.36;53.60;98938.97;683177;28;1197;-83
2021/12/08 00:33:09;;;;;;;1.90;1.60;;;;;;;7.40;53.29;98941.66;685244;28;1103;-83
2021/12/08 00:33:30;;;;;;;1.90;1.80;;;;;;;7.34;53.46;98938.97;687618;28;1108;-84
2021/12/08 00:33:51;;;;;;;1.80;1.70;;;;;;;7.28;54.06;98938.91;690583;28;933;-84
2021/12/08 00:34:12;;;;;;;2.00;1.90;;;;;;;7.30;53.74;98937.19;687766;28;1509;-82
2021/12/08 00:34:32;;;;;;;3.38;1.90;;;;;;;7.32;54.10;98956.25;684926;28;1382;-84
2021/12/08 00:34:53;;;;;;;3.20;2.00;;;;;;;7.36;54.35;98941.56;690521;28;1126;-83
2021/12/08 00:35:14;;;;;;;3.70;1.80;;;;;;;7.25;54.21;98928.50;685747;28;1837;-83
2021/12/08 00:35:37;;;;;;;2.17;1.90;;;;;;;7.38;54.20;98945.94;686824;28;1205;-83
2021/12/08 00:36:00;;;;;;;2.20;1.88;;;;;;;7.29;54.38;98932.00;688042;28;1020;-84
2021/12/08 00:36:27;;;;;;;3.00;1.70;;;;;;;7.27;53.94;98938.00;685323;28;969;-83
2021/12/08 00:36:51;;;;;;;4.15;1.52;;;;;;;7.35;54.30;98948.50;687327;28;1542;-83
2021/12/08 00:37:12;;;;;;;2.50;1.50;;;;;;;7.28;54.59;98944.09;684869;28;1961;-85
2021/12/08 00:37:33;;;;;;;1.98;1.50;;;;;;;7.27;54.58;98948.41;687752;28;1330;-83
2021/12/08 00:37:55;;;;;;;1.67;1.58;;;;;;;7.24;54.65;98924.13;690307;28;1728;-83
2021/12/08 00:38:19;;;;;;;1.65;1.55;;;;;;;7.25;54.87;98933.69;687872;28;1521;-84
2021/12/08 00:38:40;;;;;;;1.60;1.50;;;;;;;7.31;54.61;98946.72;682589;29;1086;-84
2021/12/08 00:39:00;;;;;;;1.80;1.55;;;;;;;7.15;54.63;98932.69;686175;28;2064;-84
2021/12/08 00:39:21;;;;;;;2.90;1.60;;;;;;;7.20;54.96;98940.53;684604;28;1137;-83
2021/12/08 00:39:42;;;;;;;4.70;1.70;;;;;;;7.18;55.08;98939.66;691823;28;1107;-83
2021/12/08 00:40:05;;;;;;;3.70;1.50;;;;;;;7.28;54.61;98949.28;682558;28;1124;-83
2021/12/08 00:40:28;;;;;;;1.50;1.40;;;;;;;7.21;54.41;98942.28;684858;28;1252;-83
2021/12/08 00:40:50;;;;;;;3.60;1.80;;;;;;;7.27;54.98;98958.78;687631;28;1226;-83
2021/12/08 00:41:11;;;;;;;3.92;1.90;;;;;;;7.24;54.69;98947.47;685136;28;1136;-84
2021/12/08 00:41:32;;;;;;;3.30;1.70;;;;;;;7.12;55.34;98938.72;685232;28;1057;-84
2021/12/08 00:41:53;;;;;;;1.50;1.40;;;;;;;7.21;54.86;98950.06;688949;28;1343;-84
2021/12/08 00:42:13;;;;;;;1.47;1.40;;;;;;;7.13;54.93;98927.47;689273;28;1039;-83
2021/12/08 00:42:34;;;;;;;1.90;1.60;;;;;;;7.18;54.93;98940.50;686297;28;1368;-83
2021/12/08 00:42:55;;;;;;;2.55;1.75;;;;;;;7.18;54.78;98937.06;685192;28;1213;-84
2021/12/08 00:43:17;;;;;;;2.72;1.80;;;;;;;7.18;55.32;98934.47;687498;28;1357;-83
2021/12/08 00:43:38;;;;;;;2.72;1.77;;;;;;;7.18;55.10;98942.25;685000;28;1342;-84
2021/12/08 00:43:58;;;;;;;2.95;1.77;;;;;;;7.12;55.30;98930.94;682888;28;1187;-83
2021/12/08 00:44:19;;;;;;;2.90;1.90;;;;;;;7.19;54.81;98951.75;685232;28;1267;-83
2021/12/08 00:44:40;;;;;;;2.53;1.80;;;;;;;7.15;54.70;98940.47;686461;28;1081;-84
2021/12/08 00:45:01;;;;;;;3.00;1.58;;;;;;;7.15;55.10;98939.59;687891;28;929;-83
2021/12/08 00:45:23;;;;;;;3.33;1.50;;;;;;;7.21;55.50;98947.47;687850;28;1255;-84
2021/12/08 00:45:45;;;;;;;3.38;1.50;;;;;;;7.15;55.61;98935.28;687686;28;1097;-84
2021/12/08 00:46:05;;;;;;;1.50;1.40;;;;;;;7.13;55.37;98945.63;685226;28;1020;-83
2021/12/08 00:46:26;;;;;;;1.70;1.60;;;;;;;7.11;55.86;98951.66;681371;29;800;-83
2021/12/08 00:46:46;;;;;;;1.60;1.50;;;;;;;7.17;55.52;98948.28;689508;28;1911;-83
2021/12/08 00:47:07;;;;;;;2.00;1.60;;;;;;;7.10;55.44;98932.66;688997;28;928;-83
2021/12/08 00:47:28;;;;;;;1.80;1.50;;;;;;;7.18;55.24;98953.47;689517;28;1198;-84
2021/12/08 00:47:50;;;;;;;1.80;1.70;;;;;;;7.08;55.08;98936.94;690215;28;1405;-83
2021/12/08 00:48:35;;;;;;;1.73;1.63;;;;;;;7.18;55.94;98963.00;682307;28;1792;-83
2021/12/08 00:48:56;;;;;;;3.92;1.60;;;;;;;7.09;55.66;98941.28;687063;28;1519;-84
2021/12/08 00:49:17;;;;;;;4.10;1.70;;;;;;;7.16;55.62;98950.00;687188;28;1171;-84
2021/12/08 00:49:39;;;;;;;4.20;1.70;;;;;;;7.08;55.76;98942.13;687949;28;1729;-84
2021/12/08 00:49:59;;;;;;;2.00;1.60;;;;;;;7.16;55.71;98954.31;687943;28;1072;-84
2021/12/08 00:50:31;;;;;;;1.60;1.50;;;;;;;7.09;56.06;98945.59;687561;28;1477;-83
2021/12/08 00:50:53;;;;;;;1.70;1.60;;;;;;;7.15;56.17;98934.41;690562;28;1235;-84
2021/12/08 00:51:14;;;;;;;1.70;1.60;;;;;;;7.12;55.80;98949.09;690594;28;1276;-83
2021/12/08 00:51:35;;;;;;;1.70;1.60;;;;;;;7.13;55.63;98935.25;687792;28;1044;-83
2021/12/08 00:51:56;;;;;;;1.80;1.70;;;;;;;7.15;55.98;98944.78;688943;28;1275;-84
2021/12/08 00:52:16;;;;;;;2.00;1.80;;;;;;;7.13;56.15;98940.44;690500;28;1473;-84
2021/12/08 00:52:39;;;;;;;2.53;1.92;;;;;;;7.06;56.05;98928.25;682310;29;1200;-84
2021/12/08 00:53:01;;;;;;;2.00;1.70;;;;;;;7.01;55.77;98929.94;685106;28;1387;-83
2021/12/08 00:53:21;;;;;;;2.17;1.75;;;;;;;7.18;55.71;98952.63;680579;28;1827;-83
2021/12/08 00:53:42;;;;;;;1.83;1.63;;;;;;;7.10;55.96;98937.84;685708;28;1163;-84
2021/12/08 00:54:03;;;;;;;1.60;1.50;;;;;;;7.07;56.02;98927.41;690567;28;993;-83
2021/12/08 00:54:24;;;;;;;1.40;1.30;;;;;;;7.11;55.54;98929.19;689536;28;1525;-84
2021/12/08 00:54:45;;;;;;;1.45;1.30;;;;;;;7.09;56.09;98932.63;684873;28;1207;-83
2021/12/08 00:55:08;;;;;;;1.60;1.50;;;;;;;7.17;55.44;98940.50;682425;29;1233;-83
2021/12/08 00:55:28;;;;;;;1.60;1.50;;;;;;;7.11;56.05;98936.97;685026;28;1389;-83
2021/12/08 00:55:49;;;;;;;1.70;1.60;;;;;;;7.12;56.20;98930.06;682558;28;1427;-83
2021/12/08 00:56:10;;;;;;;1.77;1.67;;;;;;;7.17;55.63;98932.72;679853;29;1007;-83
2021/12/08 00:56:31;;;;;;;2.22;2.00;;;;;;;7.15;55.69;98934.41;682628;28;1238;-83
2021/12/08 00:56:51;;;;;;;2.30;2.10;;;;;;;7.26;55.81;98945.81;687636;28;1108;-83
2021/12/08 00:57:12;;;;;;;2.90;2.10;;;;;;;7.19;55.90;98938.78;687942;28;1100;-83
2021/12/08 00:57:33;;;;;;;2.40;1.83;;;;;;;7.17;55.59;98920.59;688333;28;1780;-83
2021/12/08 00:57:55;;;;;;;2.67;1.88;;;;;;;7.32;55.39;98945.88;689571;28;2199;-83
2021/12/08 00:58:15;;;;;;;1.77;1.67;;;;;;;7.28;55.27;98933.72;687097;28;1436;-83
2021/12/08 00:58:36;;;;;;;1.65;1.55;;;;;;;7.28;55.56;98938.91;686090;28;1020;-83
2021/12/08 00:58:57;;;;;;;1.50;1.50;;;;;;;7.22;55.48;98939.72;685051;28;962;-84
2021/12/08 00:59:18;;;;;;;1.50;1.50;;;;;;;7.17;55.52;98919.75;685047;28;1721;-84
2021/12/08 00:59:39;;;;;;;1.80;1.60;;;;;;;7.24;55.43;98937.09;691973;28;1197;-84
2021/12/08 01:00:02;;;;;;;2.10;1.60;;;;;;;7.22;55.95;98928.44;692992;28;1382;-84
2021/12/08 01:00:27;;;;;;;1.75;1.55;;;;;;;7.24;55.90;98937.09;688301;28;1446;-83
2021/12/08 01:00:51;;;;;;;1.85;1.60;;;;;;;7.18;55.75;98926.69;687282;28;1121;-84
2021/12/08 01:01:13;;;;;;;3.25;1.60;;;;;;;7.28;55.55;98944.09;687629;28;1388;-83
2021/12/08 01:01:34;;;;;;;3.40;1.60;;;;;;;7.29;56.09;98944.97;690293;28;1207;-84
2021/12/08 01:01:54;;;;;;;3.78;1.70;;;;;;;7.24;55.70;98932.81;690656;28;945;-84
2021/12/08 01:02:15;;;;;;;2.70;1.70;;;;;;;7.29;55.80;98938.03;690642;28;1060;-84
2021/12/08 01:02:39;;;;;;;3.05;1.90;;;;;;;7.27;55.68;98938.00;686778;28;1514;-84
2021/12/08 01:03:00;;;;;;;2.20;2.00;;;;;;;7.20;55.40;98932.75;685142;28;1014;-84
2021/12/08 01:03:20;;;;;;;2.13;1.90;;;;;;;7.24;55.46;98932.81;691805;28;1189;-84
2021/12/08 01:03:41;;;;;;;1.80;1.70;;;;;;;7.23;55.60;98922.41;691539;28;1286;-84
2021/12/08 01:04:02;;;;;;;1.60;1.50;;;;;;;7.24;55.64;98924.13;687768;28;1747;-83
2021/12/08 01:04:22;;;;;;;2.00;1.70;;;;;;;7.31;55.30;98927.69;690149;28;2297;-83
2021/12/08 01:04:43;;;;;;;3.87;1.70;;;;;;;7.35;55.38;98934.66;690382;28;1067;-83
2021/12/08 01:05:08;;;;;;;4.47;1.80;;;;;;;7.21;55.72;98912.03;687758;28;1136;-83
2021/12/08 01:05:33;;;;;;;3.50;1.55;;;;;;;7.27;55.38;98921.59;687718;28;947;-84
2021/12/08 01:05:56;;;;;;;2.50;1.70;;;;;;;7.27;55.88;98921.59;677176;29;1237;-83
2021/12/08 01:06:17;;;;;;;2.45;1.70;;;;;;;7.25;55.96;98918.13;687144;28;1874;-84
2021/12/08 01:06:38;;;;;;;1.73;1.60;;;;;;;7.33;55.80;98934.66;687775;28;811;-83
2021/12/08 01:07:00;;;;;;;1.98;1.70;;;;;;;7.31;55.96;98936.31;685123;28;1969;-84
2021/12/08 01:07:20;;;;;;;1.80;1.70;;;;;;;7.21;55.63;98929.31;680010;29;1171;-84
2021/12/08 01:07:41;;;;;;;1.90;1.80;;;;;;;7.29;55.33;98937.19;682675;28;1206;-84
2021/12/08 01:08:03;;;;;;;1.90;1.80;;;;;;;7.31;55.89;98933.72;687577;28;1036;-84
2021/12/08 01:08:27;;;;;;;1.77;1.67;;;;;;;7.22;56.04;98918.94;687795;28;1212;-83
2021/12/08 01:08:48;;;;;;;1.70;1.60;;;;;;;7.22;55.70;98920.66;689601;28;1261;-84
2021/12/08 01:09:10;;;;;;;1.97;1.50;;;;;;;7.36;55.48;98936.38;690487;28;941;-84
2021/12/08 01:09:31;;;;;;;2.30;1.60;;;;;;;7.23;55.50;98917.22;692538;28;1341;-85
2021/12/08 01:09:52;;;;;;;2.38;1.90;;;;;;;7.23;55.28;98919.81;694647;28;1038;-84
2021/12/08 01:10:25;;;;;;;2.22;1.90;;;;;;;7.39;55.79;98942.47;691301;28;1510;-84
2021/12/08 01:10:48;;;;;;;2.92;1.77;;;;;;;7.31;55.79;98918.16;686843;28;1151;-83
2021/12/08 01:11:13;;;;;;;3.50;1.70;;;;;;;7.35;55.78;98930.34;682450;28;966;-84
2021/12/08 01:11:35;;;;;;;3.60;1.58;;;;;;;7.39;55.52;98941.63;682381;28;1175;-84
2021/12/08 01:11:57;;;;;;;1.70;1.48;;;;;;;7.32;55.79;98932.91;688590;28;1373;-83
2021/12/08 01:12:18;;;;;;;1.60;1.50;;;;;;;7.27;55.32;98926.78;685033;28;1378;-83
2021/12/08 01:12:39;;;;;;;1.90;1.70;;;;;;;7.25;55.21;98920.72;684976;28;1372;-84
2021/12/08 01:12:59;;;;;;;2.10;1.90;;;;;;;7.26;55.42;98920.72;687789;28;1223;-84
2021/12/08 01:13:22;;;;;;;2.60;2.00;;;;;;;7.29;55.55;98924.22;685017;28;1114;-84
2021/12/08 01:13:44;;;;;;;1.85;1.65;;;;;;;7.20;55.74;98924.97;686809;28;989;-83
2021/12/08 01:14:06;;;;;;;1.50;1.40;;;;;;;7.22;55.34;98925.84;683084;28;1246;-83
2021/12/08 01:14:27;;;;;;;1.60;1.50;;;;;;;7.28;55.54;98936.31;677339;29;823;-84
2021/12/08 01:14:47;;;;;;;1.80;1.70;;;;;;;7.34;55.81;98938.97;686461;28;1141;-84
2021/12/08 01:15:08;;;;;;;2.00;1.90;;;;;;;7.34;55.49;98933.78;685089;28;1370;-84
2021/12/08 01:15:29;;;;;;;2.83;2.00;;;;;;;7.39;55.07;98936.44;684984;28;1778;-84
2021/12/08 01:15:54;;;;;;;5.33;2.00;;;;;;;7.33;55.18;98926.88;683635;28;1331;-84
2021/12/08 01:16:17;;;;;;;5.50;1.85;;;;;;;7.44;55.37;98944.28;685103;28;1259;-84
2021/12/08 01:16:38;;;;;;;3.65;1.75;;;;;;;7.41;55.15;98934.72;685012;28;1128;-84
2021/12/08 01:16:58;;;;;;;3.30;1.90;;;;;;;7.38;54.84;98908.75;684294;28;1763;-83
2021/12/08 01:17:19;;;;;;;3.30;1.80;;;;;;;7.46;55.15;98924.38;682514;29;872;-84
2021/12/08 01:17:40;;;;;;;3.50;1.90;;;;;;;7.39;55.09;98921.72;686074;28;1706;-84
2021/12/08 01:18:00;;;;;;;1.83;1.73;;;;;;;7.36;54.90;98919.09;685021;28;1395;-84
2021/12/08 01:18:22;;;;;;;2.13;1.90;;;;;;;7.44;55.34;98926.09;685104;28;1049;-83
2021/12/08 01:18:43;;;;;;;2.13;1.70;;;;;;;7.30;55.49;98921.63;686385;28;1167;-84
2021/12/08 01:19:04;;;;;;;2.22;1.70;;;;;;;7.40;55.27;98939.06;688425;28;1468;-83
2021/12/08 01:19:24;;;;;;;1.88;1.70;;;;;;;7.37;55.24;98933.81;692640;28;1327;-84
2021/12/08 01:19:45;;;;;;;2.47;1.80;;;;;;;7.35;55.35;98938.13;693308;28;1076;-83
2021/12/08 01:20:08;;;;;;;3.53;1.70;;;;;;;7.42;55.27;98927.81;685045;28;1188;-83
2021/12/08 01:20:29;;;;;;;3.53;1.50;;;;;;;7.38;55.59;98919.97;687807;28;1118;-84
2021/12/08 01:20:52;;;;;;;2.83;1.40;;;;;;;7.34;55.65;98926.00;687268;28;1354;-83
2021/12/08 01:21:14;;;;;;;3.55;1.75;;;;;;;7.31;55.51;98918.16;682454;28;1546;-83
2021/12/08 01:21:34;;;;;;;3.13;1.98;;;;;;;7.32;55.28;98919.94;685289;28;1108;-83
2021/12/08 01:21:55;;;;;;;2.83;1.92;;;;;;;7.33;55.52;98921.69;687853;28;1150;-84
2021/12/08 01:22:15;;;;;;;1.90;1.80;;;;;;;7.33;55.83;98932.06;687891;28;973;-84
2021/12/08 01:22:37;;;;;;;2.07;1.97;;;;;;;7.32;55.22;98932.03;684604;28;1088;-84
2021/12/08 01:22:57;;;;;;;1.83;1.70;;;;;;;7.33;55.90;98932.06;682592;28;906;-84
2021/12/08 01:23:19;;;;;;;2.17;1.90;;;;;;;7.31;55.05;98923.34;685299;28;1069;-84
2021/12/08 01:23:41;;;;;;;1.90;1.70;;;;;;;7.38;55.63;98932.09;688709;28;1099;-84
2021/12/08 01:24:02;;;;;;;2.00;1.90;;;;;;;7.44;55.50;98939.06;687671;28;1221;-84
2021/12/08 01:24:22;;;;;;;1.80;1.70;;;;;;;7.36;55.45;98926.88;689045;28;1463;-85
2021/12/08 01:24:43;;;;;;;2.13;1.70;;;;;;;7.31;55.48;98922.50;686392;28;1152;-84
2021/12/08 01:25:42;;;;;;;1.90;1.60;;;;;;;7.39;55.27;98939.03;690429;28;1128;-83
2021/12/08 01:26:08;;;;;;;2.33;1.70;;;;;;;7.32;55.86;98924.25;688962;28;986;-83
2021/12/08 01:26:29;;;;;;;2.80;1.70;;;;;;;7.38;55.62;98930.34;688849;28;843;-84
2021/12/08 01:26:49;;;;;;;1.75;1.65;;;;;;;7.38;55.60;98921.72;695767;28;1906;-84
2021/12/08 01:27:10;;;;;;;1.80;1.60;;;;;;;7.34;55.70;98925.13;690516;28;1071;-83
2021/12/08 01:27:32;;;;;;;1.60;1.50;;;;;;;7.47;55.34;98939.09;688880;28;791;-83
2021/12/08 01:27:53;;;;;;;1.80;1.50;;;;;;;7.32;55.24;98922.53;687470;28;1379;-84
2021/12/08 01:28:16;;;;;;;2.20;1.50;;;;;;;7.39;55.48;98934.69;679760;29;1073;-84
2021/12/08 01:28:37;;;;;;;2.67;1.67;;;;;;;7.37;56.04;98927.78;685738;28;1382;-84
2021/12/08 01:28:58;;;;;;;2.60;1.60;;;;;;;7.38;55.83;98930.34;690353;28;1260;-84
2021/12/08 01:29:18;;;;;;;1.63;1.53;;;;;;;7.39;55.29;98931.25;687644;28;1069;-83
2021/12/08 01:29:39;;;;;;;1.60;1.50;;;;;;;7.40;55.18;98920.00;689745;28;1052;-84
2021/12/08 01:30:01;;;;;;;1.65;1.55;;;;;;;7.39;55.92;98921.72;686786;28;1391;-83
2021/12/08 01:30:44;;;;;;;1.60;1.50;;;;;;;7.49;55.67;98945.19;685127;28;1131;-84
2021/12/08 01:31:05;;;;;;;1.70;1.60;;;;;;;7.40;55.44;98923.50;686225;28;1393;-83
2021/12/08 01:31:27;;;;;;;1.80;1.70;;;;;;;7.49;55.65;98947.81;687711;28;2024;-84
2021/12/08 01:31:47;;;;;;;1.73;1.63;;;;;;;7.45;55.68;98943.41;684533;28;1426;-84
2021/12/08 01:32:08;;;;;;;2.00;1.80;;;;;;;7.48;56.02;98930.47;690506;28;1286;-84
2021/12/08 01:32:29;;;;;;;2.10;1.88;;;;;;;7.53;55.45;98931.38;690556;28;800;-84
2021/12/08 01:32:52;;;;;;;2.13;1.90;;;;;;;7.48;55.37;98930.47;690029;28;1159;-84
2021/12/08 01:33:12;;;;;;;2.60;1.80;;;;;;;7.48;55.45;98931.34;685043;28;1416;-84
2021/12/08 01:33:35;;;;;;;2.90;1.80;;;;;;;7.47;55.53;98929.59;685200;28;1850;-83
2021/12/08 01:33:56;;;;;;;2.70;1.67;;;;;;;7.46;55.24;98942.56;689831;28;1837;-84
2021/12/08 01:34:17;;;;;;;1.70;1.60;;;;;;;7.45;55.23;98926.13;685075;28;1214;-84
2021/12/08 01:35:04;;;;;;;1.70;1.60;;;;;;;7.58;55.15;98944.41;688549;28;1495;-83
2021/12/08 01:35:25;;;;;;;2.00;1.90;;;;;;;7.54;55.65;98939.19;693108;28;972;-84
2021/12/08 01:35:52;;;;;;;2.00;1.90;;;;;;;7.61;55.64;98945.31;689906;28;1235;-83
2021/12/08 01:36:13;;;;;;;2.10;1.90;;;;;;;7.57;55.23;98928.00;688892;28;1591;-83
2021/12/08 01:36:33;;;;;;;2.50;1.90;;;;;;;7.57;55.19;98930.59;690220;28;1230;-84
2021/12/08 01:36:54;;;;;;;2.42;1.90;;;;;;;7.57;55.32;98930.59;685434;28;1191;-84
2021/12/08 01:37:14;;;;;;;2.08;1.70;;;;;;;7.55;55.47;98932.25;682299;28;1274;-84
2021/12/08 01:37:35;;;;;;;1.87;1.77;;;;;;;7.50;55.65;98928.78;682949;28;1560;-83
2021/12/08 01:37:56;;;;;;;2.10;1.70;;;;;;;7.55;55.61;98932.25;684585;28;1180;-84
2021/12/08 01:38:17;;;;;;;3.15;1.60;;;;;;;7.58;55.58;98942.69;688254;28;917;-84
2021/12/08 01:38:37;;;;;;;2.92;1.60;;;;;;;7.50;55.55;98928.78;692889;28;1040;-83
2021/12/08 01:38:58;;;;;;;2.40;1.67;;;;;;;7.47;55.46;98924.41;687822;28;1198;-83
2021/12/08 01:39:18;;;;;;;1.90;1.80;;;;;;;7.48;55.50;98925.28;684450;28;1033;-84
2021/12/08 01:39:39;;;;;;;1.95;1.85;;;;;;;7.48;55.93;98927.88;688399;28;1115;-83
2021/12/08 01:40:00;;;;;;;1.90;1.80;;;;;;;7.55;55.92;98945.25;687482;28;1473;-83
2021/12/08 01:40:21;;;;;;;2.30;1.80;;;;;;;7.55;55.98;98947.84;682047;29;1726;-84
2021/12/08 01:40:42;;;;;;;2.28;1.75;;;;;;;7.50;55.54;98928.78;687098;28;1217;-83
2021/12/08 01:41:03;;;;;;;2.47;1.80;;;;;;;7.53;56.17;98941.78;687693;28;1096;-84
2021/12/08 01:41:25;;;;;;;2.60;1.80;;;;;;;7.43;56.20;98929.56;685205;28;841;-84
2021/12/08 01:41:47;;;;;;;2.97;2.20;;;;;;;7.40;56.30;98933.88;690890;28;1437;-84
2021/12/08 01:42:15;;;;;;;2.53;2.05;;;;;;;7.37;56.20;98918.25;689412;28;1113;-83
2021/12/08 01:42:43;;;;;;;2.25;2.05;;;;;;;7.41;56.16;98934.72;684935;28;2150;-83
2021/12/08 01:43:04;;;;;;;2.30;1.80;;;;;;;7.35;56.12;98917.38;679930;29;1356;-84
2021/12/08 01:43:29;;;;;;;4.60;1.90;;;;;;;7.44;56.53;98937.38;685096;28;1120;-84
2021/12/08 01:45:59;;;;;;;2.42;1.90;;;;;;;7.24;56.80;98938.00;692076;28;1356;-84
2021/12/08 01:46:22;;;;;;;3.50;1.80;;;;;;;7.26;57.26;98941.47;687659;28;902;-85
2021/12/08 01:46:43;;;;;;;3.58;1.70;;;;;;;7.34;57.43;98953.66;684363;28;1902;-84
2021/12/08 01:47:04;;;;;;;3.22;1.70;;;;;;;7.29;57.39;98951.00;686644;28;1198;-83
2021/12/08 01:47:27;;;;;;;3.38;2.00;;;;;;;7.34;57.41;98951.06;687921;28;889;-84
2021/12/08 01:47:47;;;;;;;2.67;1.88;;;;;;;7.28;57.44;98946.69;688935;28;1111;-83
2021/12/08 01:48:11;;;;;;;2.10;1.90;;;;;;;7.26;57.23;98935.44;690626;28;986;-84
2021/12/08 01:48:34;;;;;;;1.90;1.80;;;;;;;7.33;57.17;98944.16;687055;28;1126;-84
2021/12/08 01:48:55;;;;;;;2.22;2.00;;;;;;;7.25;57.09;98931.09;680298;28;1580;-84
2021/12/08 01:49:16;;;;;;;1.90;1.70;;;;;;;7.36;57.15;98963.22;682073;28;928;-84
2021/12/08 01:49:37;;;;;;;1.88;1.77;;;;;;;7.35;57.45;98948.50;689471;28;1074;-85
2021/12/08 01:49:57;;;;;;;1.90;1.80;;;;;;;7.31;57.38;98941.53;690412;28;1132;-83
2021/12/08 01:50:18;;;;;;;1.90;1.80;;;;;;;7.32;57.17;98942.41;685878;28;1296;-84
2021/12/08 01:50:41;;;;;;;2.00;1.90;;;;;;;7.34;57.55;98948.47;691968;28;1083;-83
2021/12/08 01:51:10;;;;;;;1.90;1.80;;;;;;;7.32;57.08;98940.69;692978;28;1455;-83
2021/12/08 01:51:31;;;;;;;2.00;1.90;;;;;;;7.32;56.88;98935.50;690371;28;1851;-84
2021/12/08 01:51:51;;;;;;;2.15;1.95;;;;;;;7.38;57.48;98939.88;687792;28;1111;-84
2021/12/08 01:52:12;;;;;;;2.00;1.80;;;;;;;7.35;57.54;98932.94;684524;28;1207;-84
2021/12/08 01:52:33;;;;;;;2.03;1.83;;;;;;;7.36;57.53;98926.88;684571;28;1728;-83
2021/12/08 01:52:53;;;;;;;1.88;1.77;;;;;;;7.36;57.47;98937.25;690388;28;1132;-84
2021/12/08 01:53:14;;;;;;;1.80;1.70;;;;;;;7.38;57.21;98935.56;687751;28;1042;-83
2021/12/08 01:53:35;;;;;;;1.70;1.60;;;;;;;7.37;56.85;98939.00;689488;28;1270;-84
2021/12/08 01:54:01;;;;;;;1.70;1.60;;;;;;;7.38;57.28;98932.09;687713;28;1191;-83